createdAt,value
2022-08-25T00:01:02.903Z,3.03
2022-08-25T00:03:04.996Z,3.53
2022-08-25T00:05:08.176Z,3.40
2022-08-25T00:07:12.758Z,3.40
2022-08-25T00:09:24.109Z,3.05
2022-08-25T00:11:29.018Z,3.10
2022-08-25T00:13:31.381Z,3.38
2022-08-25T00:15:35.983Z,2.80
2022-08-25T00:17:38.065Z,3.05
2022-08-25T00:19:40.021Z,3.03
2022-08-25T00:21:43.755Z,2.58
2022-08-25T00:23:46.816Z,2.97
2022-08-25T00:25:49.267Z,3.50
2022-08-25T00:27:51.807Z,3.55
2022-08-25T00:29:55.684Z,3.45
2022-08-25T00:31:58.232Z,3.00
2022-08-25T00:34:01.521Z,2.67
2022-08-25T00:36:05.229Z,2.92
2022-08-25T00:38:10.272Z,3.17
2022-08-25T00:40:18.618Z,3.42
2022-08-25T00:42:21.239Z,3.00
2022-08-25T00:44:26.655Z,2.83
2022-08-25T00:46:38.289Z,3.42
2022-08-25T00:48:43.805Z,3.67
2022-08-25T00:50:45.697Z,2.70
2022-08-25T00:52:52.655Z,2.90
2022-08-25T00:55:29.662Z,3.63
2022-08-25T00:57:36.540Z,3.28
2022-08-25T00:59:39.231Z,3.13
2022-08-25T01:01:43.415Z,4.00
2022-08-25T01:03:45.490Z,3.25
2022-08-25T01:05:48.823Z,3.63
2022-08-25T01:07:52.722Z,3.33
2022-08-25T01:10:01.366Z,4.57
2022-08-25T01:12:03.677Z,3.28
2022-08-25T01:14:08.663Z,3.88
2022-08-25T01:16:11.693Z,3.72
2022-08-25T01:18:16.032Z,3.58
2022-08-25T01:20:20.276Z,3.63
2022-08-25T01:22:22.379Z,4.13
2022-08-25T01:24:45.307Z,4.95
2022-08-25T01:26:47.243Z,3.00
2022-08-25T01:29:10.451Z,3.97
2022-08-25T01:31:23.537Z,3.65
2022-08-25T01:33:28.356Z,3.42
2022-08-25T01:35:31.354Z,4.07
2022-08-25T01:37:35.749Z,3.45
2022-08-25T01:39:37.680Z,4.43
2022-08-25T01:41:59.900Z,3.85
2022-08-25T01:44:06.089Z,3.20
2022-08-25T01:46:33.160Z,4.28
2022-08-25T01:48:37.112Z,3.28
2022-08-25T01:50:41.933Z,4.30
2022-08-25T01:53:09.274Z,3.97
2022-08-25T01:55:11.309Z,4.65
2022-08-25T01:57:15.420Z,4.35
2022-08-25T01:59:24.317Z,3.92
2022-08-25T02:01:28.044Z,4.63
2022-08-25T02:03:30.218Z,3.63
2022-08-25T02:05:35.453Z,3.80
2022-08-25T02:07:38.417Z,4.28
2022-08-25T02:09:44.448Z,4.68
2022-08-25T02:11:47.256Z,4.47
2022-08-25T02:13:49.279Z,4.65
2022-08-25T02:15:54.567Z,4.30
2022-08-25T02:17:57.437Z,3.72
2022-08-25T02:19:59.702Z,4.20
2022-08-25T02:22:02.403Z,4.00
2022-08-25T02:24:06.643Z,3.80
2022-08-25T02:26:10.054Z,4.45
2022-08-25T02:28:12.115Z,5.03
2022-08-25T02:30:15.627Z,4.03
2022-08-25T02:32:17.513Z,5.85
2022-08-25T02:34:19.558Z,4.03
2022-08-25T02:36:24.556Z,4.18
2022-08-25T02:38:34.065Z,5.28
2022-08-25T02:40:38.224Z,5.78
2022-08-25T02:42:42.677Z,5.38
2022-08-25T02:44:44.791Z,4.25
2022-08-25T02:46:48.668Z,4.60
2022-08-25T02:48:53.502Z,4.22
2022-08-25T02:50:55.684Z,4.32
2022-08-25T02:52:57.646Z,5.10
2022-08-25T02:54:59.585Z,5.00
2022-08-25T02:57:01.660Z,4.65
2022-08-25T02:59:04.321Z,4.45
2022-08-25T03:01:12.091Z,4.68
2022-08-25T03:03:14.542Z,4.03
2022-08-25T03:05:19.820Z,4.75
2022-08-25T03:07:22.256Z,5.03
2022-08-25T03:09:32.202Z,5.00
2022-08-25T03:11:38.524Z,3.80
2022-08-25T03:13:42.495Z,4.30
2022-08-25T03:15:46.421Z,4.30
2022-08-25T03:17:51.846Z,5.35
2022-08-25T03:19:54.849Z,4.78
2022-08-25T03:21:59.723Z,4.50
2022-08-25T03:24:01.865Z,5.00
2022-08-25T03:26:23.174Z,5.43
2022-08-25T03:28:30.095Z,4.85
2022-08-25T03:30:35.058Z,4.10
2022-08-25T03:32:37.610Z,5.18
2022-08-25T03:34:39.699Z,4.28
2022-08-25T03:36:45.207Z,4.45
2022-08-25T03:38:47.141Z,5.45
2022-08-25T03:40:51.774Z,4.47
2022-08-25T03:42:55.654Z,4.15
2022-08-25T03:44:57.575Z,4.82
2022-08-25T03:46:59.515Z,3.97
2022-08-25T03:49:06.975Z,4.32
2022-08-25T03:51:08.959Z,4.18
2022-08-25T03:53:10.920Z,4.30
2022-08-25T03:55:15.118Z,4.07
2022-08-25T03:57:17.258Z,3.70
2022-08-25T03:59:20.166Z,4.53
2022-08-25T04:01:22.631Z,5.03
2022-08-25T04:03:26.919Z,4.70
2022-08-25T04:05:38.764Z,4.28
2022-08-25T04:07:40.852Z,5.40
2022-08-25T04:09:44.920Z,4.75
2022-08-25T04:11:48.963Z,4.47
2022-08-25T04:13:59.315Z,4.40
2022-08-25T04:16:01.275Z,4.00
2022-08-25T04:18:04.499Z,4.60
2022-08-25T04:20:09.609Z,4.50
2022-08-25T04:22:11.659Z,4.72
2022-08-25T04:24:16.421Z,4.60
2022-08-25T04:26:43.367Z,4.57
2022-08-25T04:28:47.235Z,4.60
2022-08-25T04:30:52.032Z,4.82
2022-08-25T04:32:54.197Z,6.13
2022-08-25T04:34:57.166Z,5.07
2022-08-25T04:37:01.884Z,5.32
2022-08-25T04:39:04.065Z,6.38
2022-08-25T04:41:10.958Z,5.72
2022-08-25T04:43:15.629Z,5.20
2022-08-25T04:45:17.676Z,7.00
2022-08-25T04:47:23.914Z,5.40
2022-08-25T04:49:27.186Z,5.88
2022-08-25T04:51:41.226Z,6.05
2022-08-25T04:53:43.850Z,5.63
2022-08-25T04:55:48.395Z,6.95
2022-08-25T04:57:51.309Z,5.65
2022-08-25T04:59:58.295Z,6.22
2022-08-25T05:02:03.453Z,6.07
2022-08-25T05:04:14.473Z,6.85
2022-08-25T05:06:17.725Z,5.88
2022-08-25T05:08:19.675Z,6.78
2022-08-25T05:10:22.828Z,6.38
2022-08-25T05:12:24.926Z,6.18
2022-08-25T05:14:27.920Z,6.70
2022-08-25T05:16:31.822Z,5.95
2022-08-25T05:18:36.105Z,7.15
2022-08-25T05:20:38.475Z,6.78
2022-08-25T05:22:40.470Z,7.72
2022-08-25T05:24:42.446Z,6.65
2022-08-25T05:26:44.594Z,7.32
2022-08-25T05:28:47.459Z,6.22
2022-08-25T05:30:52.185Z,7.00
2022-08-25T05:32:54.468Z,7.30
2022-08-25T05:34:56.610Z,7.75
2022-08-25T05:37:00.365Z,6.68
2022-08-25T05:39:02.366Z,7.07
2022-08-25T05:41:06.865Z,8.43
2022-08-25T05:43:08.956Z,7.32
2022-08-25T05:45:16.710Z,7.18
2022-08-25T05:47:23.931Z,7.07
2022-08-25T05:49:25.864Z,7.07
2022-08-25T05:51:29.177Z,7.07
2022-08-25T05:53:35.522Z,7.95
2022-08-25T05:55:38.396Z,7.78
2022-08-25T05:57:41.441Z,8.48
2022-08-25T05:59:43.538Z,8.57
2022-08-25T06:02:03.982Z,8.68
2022-08-25T06:04:06.729Z,6.78
2022-08-25T06:06:16.280Z,7.25
2022-08-25T06:08:18.203Z,7.97
2022-08-25T06:10:29.461Z,8.75
2022-08-25T06:12:36.252Z,9.02
2022-08-25T06:14:38.343Z,8.35
2022-08-25T06:16:41.252Z,7.90
2022-08-25T06:18:44.205Z,7.88
2022-08-25T06:20:46.110Z,8.30
2022-08-25T06:22:55.501Z,8.68
2022-08-25T06:25:05.875Z,8.13
2022-08-25T06:27:07.905Z,7.72
2022-08-25T06:29:10.906Z,7.22
2022-08-25T06:31:12.987Z,8.70
2022-08-25T06:33:16.270Z,7.35
2022-08-25T06:35:20.434Z,7.93
2022-08-25T06:37:25.143Z,7.70
2022-08-25T06:39:27.589Z,8.80
2022-08-25T06:41:37.100Z,7.90
2022-08-25T06:43:45.055Z,8.10
2022-08-25T06:45:51.346Z,8.85
2022-08-25T06:47:54.865Z,7.85
2022-08-25T06:49:56.921Z,7.97
2022-08-25T06:51:59.101Z,7.53
2022-08-25T06:54:01.025Z,8.52
2022-08-25T06:56:06.635Z,8.20
2022-08-25T06:58:14.000Z,8.40
2022-08-25T07:00:17.794Z,8.25
2022-08-25T07:02:23.899Z,6.72
2022-08-25T07:04:27.090Z,7.93
2022-08-25T07:06:33.059Z,7.22
2022-08-25T07:08:36.182Z,9.00
2022-08-25T07:10:39.339Z,6.75
2022-08-25T07:12:41.617Z,7.10
2022-08-25T07:14:58.155Z,7.03
2022-08-25T07:17:10.598Z,8.20
2022-08-25T07:19:21.047Z,7.95
2022-08-25T07:21:25.346Z,6.47
2022-08-25T07:23:30.817Z,8.00
2022-08-25T07:25:35.810Z,7.32
2022-08-25T07:27:41.264Z,7.53
2022-08-25T07:29:44.770Z,9.07
2022-08-25T07:31:47.347Z,7.95
2022-08-25T07:34:10.073Z,7.65
2022-08-25T07:36:20.827Z,8.23
2022-08-25T07:38:25.697Z,7.75
2022-08-25T07:40:32.062Z,7.78
2022-08-25T07:42:36.198Z,6.95
2022-08-25T07:44:40.261Z,6.88
2022-08-25T07:46:45.633Z,8.30
2022-08-25T07:48:53.334Z,7.75
2022-08-25T07:50:56.565Z,7.53
2022-08-25T07:52:59.597Z,9.00
2022-08-25T07:55:02.442Z,8.57
2022-08-25T07:57:06.193Z,7.57
2022-08-25T07:59:13.964Z,7.65
2022-08-25T08:01:25.846Z,7.60
2022-08-25T08:03:45.177Z,7.47
2022-08-25T08:05:52.476Z,6.72
2022-08-25T08:07:55.396Z,7.07
2022-08-25T08:10:25.710Z,7.60
2022-08-25T08:12:20.260Z,6.93
2022-08-25T08:14:25.471Z,7.85
2022-08-25T08:16:29.983Z,7.07
2022-08-25T08:18:43.547Z,9.90
2022-08-25T08:20:48.588Z,8.10
2022-08-25T08:22:50.738Z,8.82
2022-08-25T08:24:54.450Z,7.95
2022-08-25T08:26:59.388Z,8.18
2022-08-25T08:29:02.007Z,8.52
2022-08-25T08:31:04.866Z,7.68
2022-08-25T08:33:11.185Z,7.88
2022-08-25T08:35:15.557Z,8.90
2022-08-25T08:37:17.545Z,7.78
2022-08-25T08:39:19.637Z,7.35
2022-08-25T08:42:10.864Z,7.93
2022-08-25T08:44:35.417Z,7.40
2022-08-25T08:47:17.425Z,7.78
2022-08-25T08:49:38.071Z,9.18
2022-08-25T08:51:56.571Z,7.38
2022-08-25T08:54:15.611Z,7.15
2022-08-25T08:56:30.743Z,7.78
2022-08-25T08:58:40.234Z,7.65
2022-08-25T09:00:52.148Z,7.63
2022-08-25T09:03:06.209Z,8.15
2022-08-25T09:05:17.061Z,8.43
2022-08-25T09:07:28.262Z,8.65
2022-08-25T09:11:52.253Z,8.55
2022-08-25T09:14:04.387Z,8.60
2022-08-25T09:16:36.184Z,7.22
2022-08-25T09:18:41.070Z,7.32
2022-08-25T09:21:17.769Z,9.45
2022-08-25T09:23:41.799Z,8.10
2022-08-25T09:25:54.097Z,7.55
2022-08-25T09:28:05.343Z,8.35
2022-08-25T09:30:11.486Z,7.18
2022-08-25T09:32:15.193Z,8.75
2022-08-25T09:34:32.133Z,7.78
2022-08-25T09:36:37.401Z,7.35
2022-08-25T09:38:40.467Z,7.88
2022-08-25T09:40:54.571Z,7.82
2022-08-25T09:43:00.483Z,8.52
2022-08-25T09:45:05.218Z,8.07
2022-08-25T09:47:22.372Z,8.43
2022-08-25T09:49:41.413Z,8.68
2022-08-25T09:51:44.485Z,8.25
2022-08-25T09:53:52.618Z,8.63
2022-08-25T09:56:04.699Z,9.05
2022-08-25T09:58:22.252Z,8.88
2022-08-25T10:00:26.567Z,7.90
2022-08-25T10:02:36.466Z,8.15
2022-08-25T10:04:41.656Z,8.55
2022-08-25T10:06:47.601Z,8.30
2022-08-25T10:08:49.578Z,7.40
2022-08-25T10:10:57.865Z,9.77
2022-08-25T10:13:03.663Z,8.35
2022-08-25T10:15:29.466Z,8.38
2022-08-25T10:17:33.760Z,8.05
2022-08-25T10:19:35.731Z,8.55
2022-08-25T10:21:42.094Z,8.32
2022-08-25T10:23:56.090Z,8.27
2022-08-25T10:26:04.565Z,8.27
2022-08-25T10:28:27.966Z,8.48
2022-08-25T10:31:09.653Z,7.45
2022-08-25T10:33:36.454Z,7.10
2022-08-25T10:35:59.090Z,7.88
2022-08-25T10:38:09.595Z,8.00
2022-08-25T10:40:23.691Z,8.82
2022-08-25T10:42:39.486Z,7.57
2022-08-25T10:45:19.512Z,7.85
2022-08-25T10:47:50.616Z,7.03
2022-08-25T10:50:02.721Z,8.07
2022-08-25T10:52:12.843Z,7.13
2022-08-25T10:54:28.221Z,7.53
2022-08-25T10:56:37.025Z,6.70
2022-08-25T10:59:00.107Z,6.82
2022-08-25T11:01:28.898Z,4.80
2022-08-25T11:06:04.772Z,3.75
2022-08-25T11:08:34.147Z,3.10
2022-08-25T11:10:53.308Z,3.85
2022-08-25T11:13:04.431Z,3.30
2022-08-25T11:15:18.207Z,3.60
2022-08-25T11:17:27.660Z,3.70
2022-08-25T11:19:38.146Z,3.55
2022-08-25T11:21:45.012Z,3.60
2022-08-25T11:23:53.812Z,4.80
2022-08-25T11:26:11.359Z,4.35
2022-08-25T11:28:22.273Z,3.38
2022-08-25T11:30:26.014Z,2.88
2022-08-25T11:32:33.506Z,2.83
2022-08-25T11:34:43.027Z,4.18
2022-08-25T11:37:00.075Z,4.47
2022-08-25T11:39:14.279Z,2.97
2022-08-25T11:41:36.149Z,3.45
2022-08-25T11:44:02.631Z,3.13
2022-08-25T11:46:19.732Z,3.05
2022-08-25T11:48:40.310Z,3.38
2022-08-25T11:50:59.894Z,3.23
2022-08-25T11:53:28.895Z,3.90
2022-08-25T11:55:39.044Z,3.20
2022-08-25T11:57:44.967Z,3.00
2022-08-25T11:59:49.920Z,3.90
2022-08-25T12:01:57.556Z,3.28
2022-08-25T12:04:31.904Z,2.75
2022-08-25T12:06:36.950Z,2.80
2022-08-25T12:09:00.057Z,3.00
2022-08-25T12:11:11.246Z,3.42
2022-08-25T12:13:33.797Z,3.53
2022-08-25T12:15:44.507Z,3.03
2022-08-25T12:18:10.388Z,2.72
2022-08-25T12:20:13.298Z,3.70
2022-08-25T12:22:16.032Z,3.95
2022-08-25T12:24:48.115Z,3.33
2022-08-25T12:27:06.761Z,3.03
2022-08-25T12:29:30.826Z,2.90
2022-08-25T12:31:51.248Z,2.97
2022-08-25T12:34:19.648Z,2.70
2022-08-25T12:36:34.694Z,2.92
2022-08-25T12:38:51.938Z,2.58
2022-08-25T12:41:22.297Z,2.90
2022-08-25T12:43:37.869Z,3.22
2022-08-25T12:45:46.577Z,2.85
2022-08-25T12:47:50.198Z,3.58
2022-08-25T12:49:52.429Z,2.90
2022-08-25T12:52:00.869Z,2.47
2022-08-25T12:54:25.826Z,3.00
2022-08-25T12:56:39.139Z,3.35
2022-08-25T12:59:03.661Z,2.65
2022-08-25T13:01:35.235Z,3.13
2022-08-25T13:04:09.396Z,3.20
2022-08-25T13:06:32.085Z,2.90
2022-08-25T13:09:28.780Z,2.90
2022-08-25T13:11:43.401Z,2.97
2022-08-25T13:14:29.055Z,3.17
2022-08-25T13:16:33.730Z,3.00
2022-08-25T13:18:39.800Z,3.42
2022-08-25T13:20:43.998Z,2.83
2022-08-25T13:22:56.676Z,2.85
2022-08-25T13:25:00.753Z,2.88
2022-08-25T13:27:06.251Z,2.72
2022-08-25T13:29:09.287Z,3.05
2022-08-25T13:31:22.419Z,2.88
2022-08-25T13:33:25.280Z,3.63
2022-08-25T13:35:30.968Z,3.03
2022-08-25T13:37:35.564Z,2.90
2022-08-25T13:39:55.261Z,3.33
2022-08-25T13:41:58.533Z,2.70
2022-08-25T13:44:06.305Z,3.22
2022-08-25T13:46:19.603Z,3.33
2022-08-25T13:48:40.183Z,3.15
2022-08-25T13:50:52.911Z,3.67
2022-08-25T13:52:58.494Z,3.25
2022-08-25T13:55:08.307Z,3.05
2022-08-25T13:57:24.972Z,2.90
2022-08-25T13:59:35.442Z,3.17
2022-08-25T14:01:51.130Z,2.75
2022-08-25T14:03:56.757Z,2.65
2022-08-25T14:06:15.571Z,2.42
2022-08-25T14:08:33.627Z,3.75
2022-08-25T14:10:40.275Z,3.17
2022-08-25T14:12:46.521Z,3.13
2022-08-25T14:14:59.219Z,2.80
2022-08-25T14:17:28.752Z,2.75
2022-08-25T14:19:35.664Z,2.70
2022-08-25T14:21:40.816Z,2.55
2022-08-25T14:23:44.155Z,2.53
2022-08-25T14:25:47.427Z,2.95
2022-08-25T14:28:09.113Z,2.33
2022-08-25T14:30:13.444Z,2.40
2022-08-25T14:32:17.170Z,3.35
2022-08-25T14:34:23.994Z,2.53
2022-08-25T14:36:29.972Z,3.28
2022-08-25T14:38:34.172Z,3.30
2022-08-25T14:40:36.293Z,2.33
2022-08-25T14:42:46.446Z,2.40
2022-08-25T14:44:50.936Z,2.78
2022-08-25T14:46:56.848Z,2.42
2022-08-25T14:49:04.668Z,3.22
2022-08-25T14:51:07.464Z,2.63
2022-08-25T14:53:11.347Z,3.13
2022-08-25T14:55:17.341Z,2.75
2022-08-25T14:57:33.352Z,2.45
2022-08-25T14:59:35.300Z,2.90
2022-08-25T15:01:37.533Z,3.45
2022-08-25T15:03:43.410Z,2.70
2022-08-25T15:05:49.304Z,2.60
2022-08-25T15:08:13.176Z,2.78
2022-08-25T15:10:15.230Z,2.50
2022-08-25T15:12:26.049Z,2.72
2022-08-25T15:14:41.160Z,5.63
2022-08-25T15:16:46.961Z,4.10
2022-08-25T15:18:57.007Z,4.22
2022-08-25T15:20:58.970Z,3.10
2022-08-25T15:23:01.717Z,2.75
2022-08-25T15:25:04.257Z,2.83
2022-08-25T15:27:12.489Z,2.90
2022-08-25T15:29:14.538Z,2.25
2022-08-25T15:31:20.606Z,2.28
2022-08-25T15:33:23.183Z,2.40
2022-08-25T15:35:27.689Z,2.80
2022-08-25T15:37:31.994Z,2.10
2022-08-25T15:39:35.495Z,2.88
2022-08-25T15:41:38.536Z,2.92
2022-08-25T15:43:40.644Z,2.60
2022-08-25T15:45:42.940Z,2.38
2022-08-25T15:47:45.252Z,2.33
2022-08-25T15:49:47.475Z,2.28
2022-08-25T15:51:49.472Z,2.83
2022-08-25T15:53:53.106Z,2.90
2022-08-25T15:56:04.663Z,2.33
2022-08-25T15:58:08.918Z,2.72
2022-08-25T16:00:13.716Z,2.25
2022-08-25T16:02:19.080Z,3.20
2022-08-25T16:04:26.797Z,2.80
2022-08-25T16:06:28.688Z,2.40
2022-08-25T16:08:30.868Z,2.55
2022-08-25T16:10:39.428Z,3.15
2022-08-25T16:12:42.703Z,2.40
2022-08-25T16:14:46.137Z,2.97
2022-08-25T16:16:49.117Z,2.80
2022-08-25T16:18:51.527Z,2.65
2022-08-25T16:20:55.761Z,2.45
2022-08-25T16:23:00.831Z,2.63
2022-08-25T16:25:03.500Z,2.42
2022-08-25T16:27:11.069Z,2.55
2022-08-25T16:29:16.666Z,2.20
2022-08-25T16:31:19.551Z,2.25
2022-08-25T16:33:21.895Z,2.20
2022-08-25T16:35:24.068Z,2.40
2022-08-25T16:37:26.508Z,2.22
2022-08-25T16:39:28.982Z,2.42
2022-08-25T16:41:35.751Z,2.65
2022-08-25T16:43:38.535Z,2.65
2022-08-25T16:45:43.560Z,2.90
2022-08-25T16:47:45.720Z,2.83
2022-08-25T16:49:48.418Z,2.97
2022-08-25T16:51:57.357Z,2.42
2022-08-25T16:54:22.120Z,3.10
2022-08-25T16:56:27.869Z,2.38
2022-08-25T16:58:30.101Z,2.92
2022-08-25T17:00:33.439Z,2.28
2022-08-25T17:02:35.614Z,2.47
2022-08-25T17:04:37.635Z,2.47
2022-08-25T17:06:49.350Z,2.83
2022-08-25T17:08:53.560Z,2.83
2022-08-25T17:11:16.941Z,2.85
2022-08-25T17:13:19.026Z,2.75
2022-08-25T17:15:24.073Z,3.47
2022-08-25T17:17:27.038Z,3.00
2022-08-25T17:19:29.530Z,3.25
2022-08-25T17:21:37.947Z,2.97
2022-08-25T17:23:44.626Z,2.78
2022-08-25T17:25:46.622Z,3.22
2022-08-25T17:27:54.471Z,2.97
2022-08-25T17:29:56.406Z,2.50
2022-08-25T17:32:00.613Z,3.22
2022-08-25T17:34:02.668Z,3.33
2022-08-25T17:36:07.292Z,2.95
2022-08-25T17:38:09.705Z,3.28
2022-08-25T17:40:12.594Z,3.33
2022-08-25T17:42:15.921Z,3.20
2022-08-25T17:44:18.028Z,3.00
2022-08-25T17:46:20.150Z,2.55
2022-08-25T17:48:24.914Z,3.17
2022-08-25T17:50:28.319Z,2.67
2022-08-25T17:52:30.812Z,3.33
2022-08-25T17:54:33.758Z,3.55
2022-08-25T17:56:35.734Z,3.05
2022-08-25T17:58:38.167Z,3.53
2022-08-25T18:00:44.084Z,3.75
2022-08-25T18:02:47.169Z,3.75
2022-08-25T18:04:49.421Z,3.00
2022-08-25T18:06:52.531Z,3.33
2022-08-25T18:09:01.885Z,3.55
2022-08-25T18:11:06.612Z,2.92
2022-08-25T18:13:12.418Z,2.78
2022-08-25T18:15:14.635Z,3.25
2022-08-25T18:17:21.860Z,3.47
2022-08-25T18:19:24.977Z,3.60
2022-08-25T18:21:30.537Z,3.78
2022-08-25T18:23:32.889Z,2.80
2022-08-25T18:25:34.883Z,3.40
2022-08-25T18:27:37.999Z,3.38
2022-08-25T18:29:41.595Z,3.33
2022-08-25T18:31:47.357Z,3.78
2022-08-25T18:33:50.861Z,3.13
2022-08-25T18:35:57.417Z,5.72
2022-08-25T18:38:25.816Z,4.82
2022-08-25T18:40:29.542Z,3.30
2022-08-25T18:42:31.634Z,5.95
2022-08-25T18:44:35.152Z,4.32
2022-08-25T18:46:42.375Z,5.50
2022-08-25T18:48:46.234Z,3.63
2022-08-25T18:50:54.513Z,4.97
2022-08-25T18:52:56.787Z,3.53
2022-08-25T18:54:59.731Z,5.32
2022-08-25T18:57:02.956Z,5.32
2022-08-25T18:59:05.112Z,5.30
2022-08-25T19:01:08.729Z,3.75
2022-08-25T19:03:16.247Z,3.60
2022-08-25T19:05:23.260Z,4.43
2022-08-25T19:07:25.741Z,5.85
2022-08-25T19:09:28.242Z,4.88
2022-08-25T19:11:30.636Z,6.70
2022-08-25T19:13:34.601Z,6.85
2022-08-25T19:15:43.663Z,5.18
2022-08-25T19:17:45.932Z,4.57
2022-08-25T19:19:48.075Z,3.92
2022-08-25T19:21:50.861Z,4.10
2022-08-25T19:23:54.132Z,4.70
2022-08-25T19:25:56.349Z,5.50
2022-08-25T19:28:03.249Z,4.38
2022-08-25T19:30:09.570Z,5.10
2022-08-25T19:32:12.755Z,7.10
2022-08-25T19:34:28.370Z,4.75
2022-08-25T19:36:35.878Z,4.88
2022-08-25T19:38:39.106Z,4.20
2022-08-25T19:40:43.115Z,4.95
2022-08-25T19:42:54.670Z,4.18
2022-08-25T19:44:56.956Z,4.70
2022-08-25T19:46:59.629Z,4.70
2022-08-25T19:49:15.470Z,5.35
2022-08-25T19:51:19.293Z,4.10
2022-08-25T19:53:24.299Z,3.88
2022-08-25T19:55:26.511Z,4.75
2022-08-25T19:57:42.412Z,4.18
2022-08-25T19:59:48.400Z,4.40
2022-08-25T20:01:53.081Z,4.18
2022-08-25T20:03:55.569Z,5.38
2022-08-25T20:05:59.397Z,3.10
2022-08-25T20:08:04.012Z,4.38
2022-08-25T20:10:14.122Z,4.22
2022-08-25T20:12:18.035Z,4.45
2022-08-25T20:14:21.643Z,3.92
2022-08-25T20:16:24.907Z,3.85
2022-08-25T20:18:28.606Z,4.20
2022-08-25T20:20:34.655Z,4.32
2022-08-25T20:22:38.954Z,4.07
2022-08-25T20:24:51.036Z,4.22
2022-08-25T20:27:05.898Z,4.20
2022-08-25T20:29:09.800Z,4.18
2022-08-25T20:31:13.479Z,3.28
2022-08-25T20:33:22.841Z,3.95
2022-08-25T20:35:31.312Z,4.45
2022-08-25T20:37:34.510Z,4.20
2022-08-25T20:39:40.654Z,4.75
2022-08-25T20:41:42.655Z,4.40
2022-08-25T20:43:56.766Z,4.70
2022-08-25T20:46:01.269Z,4.20
2022-08-25T20:48:03.815Z,4.50
2022-08-25T20:50:09.858Z,3.92
2022-08-25T20:52:15.486Z,4.25
2022-08-25T20:54:17.881Z,4.00
2022-08-25T20:56:20.646Z,4.78
2022-08-25T20:58:22.878Z,3.75
2022-08-25T21:00:25.631Z,4.15
2022-08-25T21:02:29.665Z,4.65
2022-08-25T21:04:32.067Z,5.53
2022-08-25T21:06:37.831Z,4.00
2022-08-25T21:08:46.842Z,4.18
2022-08-25T21:10:49.065Z,3.63
2022-08-25T21:12:53.379Z,4.32
2022-08-25T21:14:55.637Z,4.05
2022-08-25T21:16:58.943Z,4.05
2022-08-25T21:19:00.998Z,4.32
2022-08-25T21:21:14.776Z,4.30
2022-08-25T21:23:17.675Z,4.00
2022-08-25T21:25:21.952Z,5.07
2022-08-25T21:27:25.908Z,3.97
2022-08-25T21:29:34.110Z,4.18
2022-08-25T21:31:36.554Z,4.53
2022-08-25T21:33:40.026Z,3.72
2022-08-25T21:35:42.941Z,4.22
2022-08-25T21:37:44.953Z,4.20
2022-08-25T21:39:48.103Z,5.00
2022-08-25T21:41:51.124Z,4.00
2022-08-25T21:44:02.293Z,4.20
2022-08-25T21:46:05.088Z,4.82
2022-08-25T21:48:11.654Z,5.13
2022-08-25T21:50:14.616Z,5.32
2022-08-25T21:52:16.723Z,4.72
2022-08-25T21:54:20.678Z,4.50
2022-08-25T21:56:26.277Z,3.70
2022-08-25T21:58:28.453Z,4.88
2022-08-25T22:00:34.051Z,3.97
2022-08-25T22:02:36.067Z,4.10
2022-08-25T22:04:39.755Z,4.53
2022-08-25T22:06:41.834Z,3.95
2022-08-25T22:08:46.381Z,4.45
2022-08-25T22:10:48.635Z,4.55
2022-08-25T22:12:57.672Z,4.07
2022-08-25T22:15:06.137Z,4.32
2022-08-25T22:17:12.279Z,4.47
2022-08-25T22:19:19.670Z,4.27
2022-08-25T22:21:22.801Z,4.38
2022-08-25T22:23:28.146Z,4.97
2022-08-25T22:25:30.436Z,3.58
2022-08-25T22:27:33.618Z,3.90
2022-08-25T22:29:35.911Z,4.18
2022-08-25T22:31:38.004Z,4.32
2022-08-25T22:33:40.477Z,4.53
2022-08-25T22:35:43.622Z,4.50
2022-08-25T22:37:47.204Z,4.55
2022-08-25T22:39:49.269Z,5.43
2022-08-25T22:41:57.653Z,4.43
2022-08-25T22:44:04.926Z,5.60
2022-08-25T22:46:12.777Z,5.05
2022-08-25T22:48:14.974Z,5.35
2022-08-25T22:50:18.113Z,5.05
2022-08-25T22:52:20.852Z,5.32
2022-08-25T22:54:34.241Z,5.50
2022-08-25T22:56:37.880Z,4.55
2022-08-25T22:58:40.658Z,4.85
2022-08-25T23:00:42.773Z,4.03
2022-08-25T23:02:53.475Z,4.03
2022-08-25T23:04:57.981Z,4.47
2022-08-25T23:07:05.502Z,4.30
2022-08-25T23:09:09.142Z,4.22
2022-08-25T23:11:12.699Z,4.03
2022-08-25T23:13:23.034Z,4.22
2022-08-25T23:15:36.489Z,4.35
2022-08-25T23:17:38.955Z,5.65
2022-08-25T23:19:40.899Z,4.32
2022-08-25T23:22:02.117Z,4.28
2022-08-25T23:24:06.227Z,3.95
2022-08-25T23:26:09.791Z,3.83
2022-08-25T23:28:12.809Z,4.13
2022-08-25T23:30:15.066Z,4.05
2022-08-25T23:32:28.070Z,4.15
2022-08-25T23:34:30.519Z,4.15
2022-08-25T23:36:35.929Z,4.25
2022-08-25T23:38:41.867Z,4.22
2022-08-25T23:40:48.896Z,3.65
2022-08-25T23:42:52.908Z,4.43
2022-08-25T23:44:56.196Z,3.97
2022-08-25T23:46:58.272Z,3.85
2022-08-25T23:49:00.440Z,3.95
2022-08-25T23:51:03.844Z,3.95
2022-08-25T23:53:05.861Z,4.25
2022-08-25T23:55:09.106Z,4.15
2022-08-25T23:57:11.771Z,4.65
2022-08-25T23:59:16.053Z,4.88
